createdAt,value
2019-02-09T00:04:26.633Z,14.07
2019-02-09T00:09:43.862Z,11.67
2019-02-09T00:15:01.341Z,18.10
2019-02-09T00:20:18.921Z,10.87
2019-02-09T00:25:36.159Z,12.70
2019-02-09T00:30:54.317Z,20.87
2019-02-09T00:36:11.944Z,10.87
2019-02-09T00:41:29.139Z,20.43
2019-02-09T00:46:46.106Z,12.00
2019-02-09T00:52:03.214Z,9.47
2019-02-09T00:57:20.736Z,7.57
2019-02-09T01:02:37.817Z,11.17
2019-02-09T01:07:55.056Z,8.27
2019-02-09T01:13:12.387Z,8.87
2019-02-09T01:18:29.782Z,18.03
2019-02-09T01:23:47.051Z,9.60
2019-02-09T01:29:04.126Z,10.83
2019-02-09T01:34:21.376Z,12.57
2019-02-09T01:39:38.442Z,14.03
2019-02-09T01:44:55.534Z,11.73
2019-02-09T01:50:13.109Z,12.43
2019-02-09T01:55:31.600Z,14.30
2019-02-09T02:00:49.081Z,9.93
2019-02-09T02:06:06.303Z,11.47
2019-02-09T02:11:23.114Z,14.00
2019-02-09T02:16:40.141Z,14.30
2019-02-09T02:21:57.327Z,16.20
2019-02-09T02:27:14.251Z,15.60
2019-02-09T02:32:31.373Z,17.90
2019-02-09T02:37:47.971Z,12.47
2019-02-09T02:43:05.053Z,16.97
2019-02-09T02:48:21.960Z,15.10
2019-02-09T02:53:38.867Z,22.00
2019-02-09T02:58:56.234Z,21.53
2019-02-09T03:04:13.374Z,19.87
2019-02-09T03:09:30.482Z,26.60
2019-02-09T03:14:47.437Z,18.33
2019-02-09T03:20:05.142Z,35.97
2019-02-09T03:25:22.605Z,19.47
2019-02-09T03:30:47.898Z,16.40
2019-02-09T03:35:58.364Z,20.53
2019-02-09T03:41:15.409Z,21.60
2019-02-09T03:46:32.451Z,25.33
2019-02-09T03:51:50.047Z,23.63
2019-02-09T03:57:07.671Z,14.47
2019-02-09T04:02:25.507Z,24.80
2019-02-09T04:07:42.859Z,23.57
2019-02-09T04:13:00.014Z,21.07
2019-02-09T04:18:17.163Z,32.50
2019-02-09T04:23:34.348Z,29.20
2019-02-09T04:28:51.674Z,31.03
2019-02-09T04:34:09.020Z,23.07
2019-02-09T04:39:26.483Z,26.30
2019-02-09T04:44:43.817Z,29.70
2019-02-09T04:50:00.975Z,27.53
2019-02-09T04:55:18.431Z,31.73
2019-02-09T05:00:35.400Z,31.17
2019-02-09T05:05:52.786Z,27.90
2019-02-09T05:11:10.425Z,23.83
2019-02-09T05:16:27.447Z,27.80
2019-02-09T05:21:44.586Z,22.53
2019-02-09T05:27:01.643Z,20.23
2019-02-09T05:32:18.703Z,22.03
2019-02-09T05:37:35.629Z,18.77
2019-02-09T05:42:52.806Z,24.60
2019-02-09T05:48:09.828Z,18.02
2019-02-09T05:53:26.766Z,26.27
2019-02-09T05:58:44.335Z,23.17
2019-02-09T06:04:01.353Z,16.30
2019-02-09T06:09:18.976Z,12.27
2019-02-09T06:14:36.434Z,17.80
2019-02-09T06:19:53.808Z,12.97
2019-02-09T06:25:11.373Z,19.90
2019-02-09T06:30:28.610Z,14.27
2019-02-09T06:35:45.903Z,16.77
2019-02-09T06:41:03.250Z,25.33
2019-02-09T06:46:20.194Z,20.30
2019-02-09T06:51:37.658Z,20.70
2019-02-09T06:56:54.889Z,25.57
2019-02-09T07:02:12.486Z,19.30
2019-02-09T07:07:29.746Z,30.30
2019-02-09T07:12:47.114Z,17.90
2019-02-09T07:18:04.210Z,22.20
2019-02-09T07:23:21.649Z,15.93
2019-02-09T07:28:38.756Z,19.27
2019-02-09T07:33:56.076Z,21.12
2019-02-09T07:39:13.189Z,12.50
2019-02-09T07:44:30.879Z,25.30
2019-02-09T07:49:48.133Z,16.13
2019-02-09T07:55:05.487Z,16.97
2019-02-09T08:00:23.396Z,10.20
2019-02-09T08:05:40.970Z,13.87
2019-02-09T08:10:58.466Z,23.73
2019-02-09T08:16:15.718Z,13.77
2019-02-09T08:21:33.530Z,11.80
2019-02-09T08:26:50.725Z,13.07
2019-02-09T08:32:12.886Z,14.70
2019-02-09T08:37:27.315Z,17.73
2019-02-09T08:42:44.354Z,12.23
2019-02-09T08:48:01.397Z,19.30
2019-02-09T08:53:18.645Z,20.47
2019-02-09T08:58:35.440Z,10.53
2019-02-09T09:03:52.625Z,17.30
2019-02-09T09:09:09.909Z,14.33
2019-02-09T09:14:26.906Z,21.73
2019-02-09T09:19:44.123Z,14.53
2019-02-09T09:25:01.192Z,10.10
2019-02-09T09:30:18.899Z,12.80
2019-02-09T09:35:36.390Z,16.37
2019-02-09T09:40:53.132Z,27.40
2019-02-09T09:46:10.277Z,21.70
2019-02-09T09:51:27.638Z,19.07
2019-02-09T09:56:44.839Z,15.63
2019-02-09T10:02:01.621Z,27.00
2019-02-09T10:07:19.179Z,9.70
2019-02-09T10:12:36.181Z,13.40
2019-02-09T10:17:53.030Z,10.77
2019-02-09T10:23:09.984Z,13.30
2019-02-09T10:28:27.319Z,11.80
2019-02-09T10:33:44.540Z,9.53
2019-02-09T10:39:01.893Z,13.67
2019-02-09T10:44:19.396Z,13.87
2019-02-09T10:49:36.691Z,16.67
2019-02-09T10:54:54.030Z,19.63
2019-02-09T11:00:11.554Z,15.70
2019-02-09T11:05:28.396Z,15.77
2019-02-09T11:10:45.365Z,18.23
2019-02-09T11:16:02.751Z,19.30
2019-02-09T11:21:19.633Z,16.37
2019-02-09T11:26:36.532Z,13.67
2019-02-09T11:31:53.308Z,15.80
2019-02-09T11:37:10.215Z,17.47
2019-02-09T11:42:27.405Z,10.17
2019-02-09T11:47:44.332Z,11.77
2019-02-09T11:53:01.501Z,13.93
2019-02-09T11:58:19.838Z,22.53
2019-02-09T12:03:37.767Z,17.03
2019-02-09T12:08:54.589Z,16.17
2019-02-09T12:14:11.931Z,16.47
2019-02-09T12:19:29.014Z,16.77
2019-02-09T12:24:45.758Z,18.90
2019-02-09T12:30:02.740Z,10.20
2019-02-09T12:35:20.034Z,13.27
2019-02-09T12:40:37.148Z,13.63
2019-02-09T12:45:54.435Z,19.10
2019-02-09T12:51:11.849Z,11.33
2019-02-09T12:56:29.052Z,11.07
2019-02-09T13:01:46.550Z,9.33
2019-02-09T13:07:03.396Z,28.40
2019-02-09T13:12:20.613Z,20.17
2019-02-09T13:17:37.434Z,22.00
2019-02-09T13:22:54.322Z,17.57
2019-02-09T13:28:11.541Z,11.80
2019-02-09T13:33:28.782Z,20.90
2019-02-09T13:38:46.315Z,11.87
2019-02-09T13:44:03.560Z,17.23
2019-02-09T13:49:20.474Z,11.00
2019-02-09T13:54:37.672Z,17.50
2019-02-09T13:59:54.817Z,24.03
2019-02-09T14:05:12.035Z,14.10
2019-02-09T14:10:29.485Z,12.60
2019-02-09T14:15:46.475Z,15.03
2019-02-09T14:21:03.588Z,17.60
2019-02-09T14:26:20.797Z,11.20
2019-02-09T14:31:38.313Z,10.87
2019-02-09T14:36:55.121Z,7.30
2019-02-09T14:42:12.410Z,5.77
2019-02-09T14:47:29.579Z,13.57
2019-02-09T14:52:46.557Z,13.80
2019-02-09T14:58:03.310Z,17.60
2019-02-09T15:03:26.964Z,15.93
2019-02-09T15:08:40.038Z,12.83
2019-02-09T15:13:56.898Z,13.00
2019-02-09T15:19:14.493Z,9.83
2019-02-09T15:24:31.398Z,16.67
2019-02-09T15:29:49.473Z,8.60
2019-02-09T15:35:07.082Z,16.07
2019-02-09T15:40:24.293Z,16.23
2019-02-09T15:45:41.486Z,22.20
2019-02-09T15:50:58.847Z,20.93
2019-02-09T15:56:16.509Z,13.90
2019-02-09T16:01:33.514Z,13.00
2019-02-09T16:06:51.188Z,21.83
2019-02-09T16:12:07.978Z,19.03
2019-02-09T16:17:25.110Z,19.47
2019-02-09T16:22:41.854Z,15.87
2019-02-09T16:27:59.505Z,10.90
2019-02-09T16:33:17.019Z,27.80
2019-02-09T16:38:34.407Z,35.33
2019-02-09T16:43:51.697Z,25.73
2019-02-09T16:49:09.014Z,33.27
2019-02-09T16:54:26.355Z,24.23
2019-02-09T16:59:43.689Z,20.87
2019-02-09T17:05:00.674Z,24.37
2019-02-09T17:10:17.552Z,19.33
2019-02-09T17:15:34.653Z,33.33
2019-02-09T17:20:52.960Z,27.52
2019-02-09T17:26:10.646Z,27.23
2019-02-09T17:31:28.365Z,26.90
2019-02-09T17:36:45.956Z,29.33
2019-02-09T17:42:03.078Z,26.63
2019-02-09T17:47:19.894Z,19.83
2019-02-09T17:52:37.022Z,16.77
2019-02-09T17:57:54.492Z,18.67
2019-02-09T18:03:12.717Z,29.60
2019-02-09T18:08:29.882Z,16.30
2019-02-09T18:13:47.691Z,22.37
2019-02-09T18:19:04.549Z,22.03
2019-02-09T18:24:21.394Z,19.53
2019-02-09T18:29:38.966Z,19.50
2019-02-09T18:34:56.355Z,29.73
2019-02-09T18:40:13.592Z,30.85
2019-02-09T18:45:31.237Z,30.32
2019-02-09T18:50:48.445Z,22.97
2019-02-09T18:56:05.602Z,24.17
2019-02-09T19:01:22.613Z,25.50
2019-02-09T19:06:39.926Z,26.00
2019-02-09T19:11:57.505Z,21.13
2019-02-09T19:17:15.274Z,28.27
2019-02-09T19:22:32.143Z,21.60
2019-02-09T19:27:48.927Z,24.53
2019-02-09T19:33:06.685Z,18.40
2019-02-09T19:38:23.693Z,15.33
2019-02-09T19:43:40.625Z,17.70
2019-02-09T19:48:57.834Z,15.40
2019-02-09T19:54:15.581Z,24.33
2019-02-09T19:59:32.829Z,14.03
2019-02-09T20:04:49.679Z,18.90
2019-02-09T20:10:07.043Z,12.77
2019-02-09T20:15:24.282Z,8.50
2019-02-09T20:20:46.956Z,5.77
2019-02-09T20:26:00.422Z,8.47
2019-02-09T20:31:17.502Z,15.77
2019-02-09T20:36:34.886Z,9.63
2019-02-09T20:41:52.048Z,11.60
2019-02-09T20:47:09.408Z,18.47
2019-02-09T20:52:26.435Z,13.87
2019-02-09T20:57:43.988Z,14.30
2019-02-09T21:03:01.262Z,14.50
2019-02-09T21:08:18.485Z,8.97
2019-02-09T21:13:35.258Z,10.73
2019-02-09T21:18:52.275Z,11.83
2019-02-09T21:24:09.727Z,16.47
2019-02-09T21:29:27.099Z,13.58
2019-02-09T21:34:44.509Z,9.48
2019-02-09T21:40:01.742Z,10.67
2019-02-09T21:45:19.423Z,5.53
2019-02-09T21:50:36.544Z,16.50
2019-02-09T21:55:53.694Z,6.73
2019-02-09T22:01:11.407Z,10.47
2019-02-09T22:06:28.616Z,8.00
2019-02-09T22:11:46.548Z,5.57
2019-02-09T22:17:04.358Z,7.27
2019-02-09T22:22:21.693Z,2.47
2019-02-09T22:27:38.635Z,4.27
2019-02-09T22:32:55.693Z,6.83
2019-02-09T22:38:13.089Z,5.43
2019-02-09T22:43:30.023Z,4.83
2019-02-09T22:48:47.295Z,6.53
2019-02-09T22:54:04.670Z,4.07
2019-02-09T22:59:21.744Z,2.87
2019-02-09T23:04:39.341Z,5.40
2019-02-09T23:09:56.033Z,4.80
2019-02-09T23:15:13.511Z,9.33
2019-02-09T23:20:30.576Z,5.10
2019-02-09T23:25:47.535Z,5.00
2019-02-09T23:31:04.430Z,5.47
2019-02-09T23:36:21.250Z,7.20
2019-02-09T23:41:40.265Z,12.13
2019-02-09T23:46:57.744Z,3.70
2019-02-09T23:52:14.696Z,5.93
2019-02-09T23:57:31.633Z,5.40
